sensor_id;sensor_type;location;lat;lon;timestamp;pressure;altitude;pressure_sealevel;temperature;humidity
49825;BME280;35714;55.708;37.478;2024-03-02T00:00:05;100652.16;;;6.12;55.42
49825;BME280;35714;55.708;37.478;2024-03-02T00:02:42;100655.50;;;6.14;55.60
49825;BME280;35714;55.708;37.478;2024-03-02T00:05:11;100650.13;;;6.14;55.38
49825;BME280;35714;55.708;37.478;2024-03-02T00:07:36;100658.88;;;6.17;55.68
49825;BME280;35714;55.708;37.478;2024-03-02T00:10:08;100652.09;;;6.21;55.13
49825;BME280;35714;55.708;37.478;2024-03-02T00:12:39;100650.81;;;6.17;55.02
49825;BME280;35714;55.708;37.478;2024-03-02T00:17:56;100640.69;;;6.19;55.35
49825;BME280;35714;55.708;37.478;2024-03-02T00:20:22;100640.69;;;6.19;55.19
49825;BME280;35714;55.708;37.478;2024-03-02T00:22:50;100637.81;;;6.20;54.92
49825;BME280;35714;55.708;37.478;2024-03-02T00:25:16;100636.28;;;6.18;55.05
49825;BME280;35714;55.708;37.478;2024-03-02T00:27:47;100637.34;;;6.17;55.47
49825;BME280;35714;55.708;37.478;2024-03-02T00:33:00;100639.84;;;6.18;55.30
49825;BME280;35714;55.708;37.478;2024-03-02T00:35:26;100643.38;;;6.19;55.02
49825;BME280;35714;55.708;37.478;2024-03-02T00:37:52;100640.69;;;6.19;55.03
49825;BME280;35714;55.708;37.478;2024-03-02T00:40:17;100642.72;;;6.17;55.04
49825;BME280;35714;55.708;37.478;2024-03-02T00:42:44;100642.72;;;6.17;55.18
49825;BME280;35714;55.708;37.478;2024-03-02T00:45:10;100639.00;;;6.18;55.08
49825;BME280;35714;55.708;37.478;2024-03-02T00:47:39;100638.63;;;6.21;55.09
49825;BME280;35714;55.708;37.478;2024-03-02T00:50:05;100638.63;;;6.21;54.98
49825;BME280;35714;55.708;37.478;2024-03-02T00:52:31;100643.56;;;6.17;55.01
49825;BME280;35714;55.708;37.478;2024-03-02T00:54:58;100641.88;;;6.16;54.96
49825;BME280;35714;55.708;37.478;2024-03-02T00:57:24;100641.03;;;6.16;54.95
49825;BME280;35714;55.708;37.478;2024-03-02T00:59:51;100647.25;;;6.16;54.79
49825;BME280;35714;55.708;37.478;2024-03-02T01:02:17;100638.03;;;6.10;54.95
49825;BME280;35714;55.708;37.478;2024-03-02T01:04:45;100646.78;;;6.12;54.90
49825;BME280;35714;55.708;37.478;2024-03-02T01:07:10;100653.34;;;6.10;55.03
49825;BME280;35714;55.708;37.478;2024-03-02T01:09:36;100645.81;;;6.05;55.37
49825;BME280;35714;55.708;37.478;2024-03-02T01:12:02;100658.53;;;6.11;55.32
49825;BME280;35714;55.708;37.478;2024-03-02T01:14:28;100649.50;;;6.04;54.96
49825;BME280;35714;55.708;37.478;2024-03-02T01:16:53;100658.38;;;6.13;55.15
49825;BME280;35714;55.708;37.478;2024-03-02T01:19:19;100662.56;;;6.16;55.04
49825;BME280;35714;55.708;37.478;2024-03-02T01:21:45;100663.22;;;6.18;55.04
49825;BME280;35714;55.708;37.478;2024-03-02T01:24:10;100663.56;;;6.14;54.91
49825;BME280;35714;55.708;37.478;2024-03-02T01:26:36;100656.53;;;6.13;54.82
49825;BME280;35714;55.708;37.478;2024-03-02T01:29:02;100666.44;;;6.13;54.98
49825;BME280;35714;55.708;37.478;2024-03-02T01:31:27;100658.38;;;6.13;54.75
49825;BME280;35714;55.708;37.478;2024-03-02T01:33:53;100656.72;;;6.12;55.02
49825;BME280;35714;55.708;37.478;2024-03-02T01:36:18;100647.94;;;6.10;54.69
49825;BME280;35714;55.708;37.478;2024-03-02T01:38:44;100655.84;;;6.11;55.00
49825;BME280;35714;55.708;37.478;2024-03-02T01:41:10;100659.56;;;6.10;55.29
49825;BME280;35714;55.708;37.478;2024-03-02T01:43:37;100652.19;;;6.04;54.87
49825;BME280;35714;55.708;37.478;2024-03-02T01:46:02;100649.50;;;6.04;54.76
49825;BME280;35714;55.708;37.478;2024-03-02T01:48:28;100648.16;;;6.00;54.97
49825;BME280;35714;55.708;37.478;2024-03-02T01:50:54;100664.66;;;6.05;54.96
49825;BME280;35714;55.708;37.478;2024-03-02T01:53:20;100649.50;;;6.04;55.20
49825;BME280;35714;55.708;37.478;2024-03-02T01:55:46;100656.59;;;6.05;55.04
49825;BME280;35714;55.708;37.478;2024-03-02T01:58:12;100661.97;;;6.05;54.78
49825;BME280;35714;55.708;37.478;2024-03-02T02:00:37;100669.34;;;6.03;54.76
49825;BME280;35714;55.708;37.478;2024-03-02T02:03:03;100654.88;;;6.04;55.09
49825;BME280;35714;55.708;37.478;2024-03-02T02:05:29;100668.34;;;6.04;54.83
49825;BME280;35714;55.708;37.478;2024-03-02T02:07:55;100661.97;;;6.05;54.96
49825;BME280;35714;55.708;37.478;2024-03-02T02:10:20;100665.84;;;6.03;54.97
49825;BME280;35714;55.708;37.478;2024-03-02T02:12:46;100660.63;;;6.01;54.98
49825;BME280;35714;55.708;37.478;2024-03-02T02:15:22;100651.53;;;6.02;54.57
49825;BME280;35714;55.708;37.478;2024-03-02T02:17:48;100661.97;;;6.05;54.82
49825;BME280;35714;55.708;37.478;2024-03-02T02:20:14;100651.88;;;5.99;54.75
49825;BME280;35714;55.708;37.478;2024-03-02T02:22:39;100656.94;;;6.02;54.72
49825;BME280;35714;55.708;37.478;2024-03-02T02:25:05;100663.97;;;6.03;54.81
49825;BME280;35714;55.708;37.478;2024-03-02T02:27:31;100661.28;;;6.03;54.64
49825;BME280;35714;55.708;37.478;2024-03-02T02:29:56;100661.09;;;6.05;54.87
49825;BME280;35714;55.708;37.478;2024-03-02T02:32:22;100660.94;;;6.06;54.65
49825;BME280;35714;55.708;37.478;2024-03-02T02:34:52;100662.78;;;6.06;54.77
49825;BME280;35714;55.708;37.478;2024-03-02T02:37:18;100672.56;;;6.07;54.54
49825;BME280;35714;55.708;37.478;2024-03-02T02:39:43;100666.66;;;6.03;54.83
49825;BME280;35714;55.708;37.478;2024-03-02T02:42:09;100668.53;;;6.03;54.65
49825;BME280;35714;55.708;37.478;2024-03-02T02:44:34;100668.03;;;5.99;54.68
49825;BME280;35714;55.708;37.478;2024-03-02T02:47:00;100658.28;;;5.98;54.81
49825;BME280;35714;55.708;37.478;2024-03-02T02:49:25;100665.53;;;5.98;54.85
49825;BME280;35714;55.708;37.478;2024-03-02T02:51:52;100668.69;;;6.01;54.74
49825;BME280;35714;55.708;37.478;2024-03-02T02:54:18;100671.03;;;6.04;54.72
49825;BME280;35714;55.708;37.478;2024-03-02T02:56:43;100666.84;;;6.02;54.72
49825;BME280;35714;55.708;37.478;2024-03-02T02:59:09;100671.38;;;6.01;54.74
49825;BME280;35714;55.708;37.478;2024-03-02T03:01:34;100669.69;;;6.00;54.67
49825;BME280;35714;55.708;37.478;2024-03-02T03:04:00;100669.69;;;6.00;54.73
49825;BME280;35714;55.708;37.478;2024-03-02T03:06:25;100665.19;;;6.01;54.67
49825;BME280;35714;55.708;37.478;2024-03-02T03:08:52;100666.84;;;6.02;54.72
49825;BME280;35714;55.708;37.478;2024-03-02T03:11:18;100678.47;;;6.02;54.66
49825;BME280;35714;55.708;37.478;2024-03-02T03:13:43;100681.00;;;6.04;54.77
49825;BME280;35714;55.708;37.478;2024-03-02T03:16:09;100680.13;;;6.03;54.74
49825;BME280;35714;55.708;37.478;2024-03-02T03:18:35;100684.03;;;6.01;54.62
49825;BME280;35714;55.708;37.478;2024-03-02T03:21:01;100677.94;;;5.99;54.67
49825;BME280;35714;55.708;37.478;2024-03-02T03:23:26;100676.44;;;5.96;54.57
49825;BME280;35714;55.708;37.478;2024-03-02T03:25:52;100675.09;;;5.92;54.72
49825;BME280;35714;55.708;37.478;2024-03-02T03:28:17;100676.09;;;5.91;54.63
49825;BME280;35714;55.708;37.478;2024-03-02T03:30:43;100671.22;;;5.94;54.85
49825;BME280;35714;55.708;37.478;2024-03-02T03:33:08;100672.06;;;5.95;54.62
49825;BME280;35714;55.708;37.478;2024-03-02T03:35:34;100673.22;;;5.92;54.77
49825;BME280;35714;55.708;37.478;2024-03-02T03:38:00;100668.72;;;5.93;54.92
49825;BME280;35714;55.708;37.478;2024-03-02T03:40:27;100668.72;;;5.93;54.97
49825;BME280;35714;55.708;37.478;2024-03-02T03:42:53;100672.56;;;5.99;55.05
49825;BME280;35714;55.708;37.478;2024-03-02T03:45:19;100668.03;;;5.99;54.64
49825;BME280;35714;55.708;37.478;2024-03-02T03:47:45;100656.59;;;5.97;54.56
49825;BME280;35714;55.708;37.478;2024-03-02T03:50:11;100664.66;;;5.97;54.57
49825;BME280;35714;55.708;37.478;2024-03-02T03:52:37;100660.47;;;5.94;54.57
49825;BME280;35714;55.708;37.478;2024-03-02T03:55:03;100662.28;;;5.94;54.85
49825;BME280;35714;55.708;37.478;2024-03-02T03:57:30;100654.22;;;5.94;54.68
49825;BME280;35714;55.708;37.478;2024-03-02T03:59:56;100663.66;;;5.98;54.69
49825;BME280;35714;55.708;37.478;2024-03-02T04:02:21;100658.94;;;6.00;54.64
49825;BME280;35714;55.708;37.478;2024-03-02T04:04:47;100661.44;;;6.02;54.33
49825;BME280;35714;55.708;37.478;2024-03-02T04:07:13;100651.72;;;6.01;54.64
49825;BME280;35714;55.708;37.478;2024-03-02T04:09:38;100660.63;;;6.01;54.36
49825;BME280;35714;55.708;37.478;2024-03-02T04:12:04;100662.66;;;5.99;54.52
49825;BME280;35714;55.708;37.478;2024-03-02T04:14:29;100652.91;;;5.90;54.82
49825;BME280;35714;55.708;37.478;2024-03-02T04:16:55;100656.25;;;5.92;54.39
49825;BME280;35714;55.708;37.478;2024-03-02T04:19:21;100657.94;;;5.93;54.45
49825;BME280;35714;55.708;37.478;2024-03-02T04:21:46;100663.31;;;5.93;54.28
49825;BME280;35714;55.708;37.478;2024-03-02T04:24:12;100670.06;;;5.97;54.39
49825;BME280;35714;55.708;37.478;2024-03-02T04:26:37;100671.91;;;5.96;54.37
49825;BME280;35714;55.708;37.478;2024-03-02T04:29:03;100667.50;;;5.95;54.01
49825;BME280;35714;55.708;37.478;2024-03-02T04:31:29;100672.06;;;5.95;54.41
49825;BME280;35714;55.708;37.478;2024-03-02T04:33:54;100669.53;;;5.93;54.44
49825;BME280;35714;55.708;37.478;2024-03-02T04:36:20;100669.72;;;5.92;54.39
49825;BME280;35714;55.708;37.478;2024-03-02T04:38:46;100669.72;;;5.92;54.38
49825;BME280;35714;55.708;37.478;2024-03-02T04:41:12;100668.88;;;5.91;54.34
49825;BME280;35714;55.708;37.478;2024-03-02T04:43:37;100658.63;;;5.87;54.40
49825;BME280;35714;55.708;37.478;2024-03-02T04:46:03;100662.97;;;5.88;54.40
49825;BME280;35714;55.708;37.478;2024-03-02T04:48:29;100660.63;;;5.93;54.44
49825;BME280;35714;55.708;37.478;2024-03-02T04:50:54;100664.97;;;5.94;54.38
49825;BME280;35714;55.708;37.478;2024-03-02T04:53:20;100671.22;;;5.94;54.43
49825;BME280;35714;55.708;37.478;2024-03-02T04:55:45;100669.03;;;5.98;54.39
49825;BME280;35714;55.708;37.478;2024-03-02T04:58:31;100663.50;;;6.00;54.28
49825;BME280;35714;55.708;37.478;2024-03-02T05:00:56;100673.09;;;6.02;54.44
49825;BME280;35714;55.708;37.478;2024-03-02T05:03:22;100670.75;;;5.99;53.96
49825;BME280;35714;55.708;37.478;2024-03-02T05:05:47;100666.66;;;5.95;54.33
49825;BME280;35714;55.708;37.478;2024-03-02T05:08:13;100664.97;;;5.94;54.24
49825;BME280;35714;55.708;37.478;2024-03-02T05:10:39;100665.66;;;5.88;54.32
49825;BME280;35714;55.708;37.478;2024-03-02T05:13:04;100662.66;;;5.83;54.27
49825;BME280;35714;55.708;37.478;2024-03-02T05:15:30;100671.78;;;5.82;54.60
49825;BME280;35714;55.708;37.478;2024-03-02T05:17:55;100659.66;;;5.77;54.53
49825;BME280;35714;55.708;37.478;2024-03-02T05:20:22;100657.63;;;5.79;54.60
49825;BME280;35714;55.708;37.478;2024-03-02T05:22:48;100658.97;;;5.84;54.36
49825;BME280;35714;55.708;37.478;2024-03-02T05:25:15;100665.34;;;5.83;54.48
49825;BME280;35714;55.708;37.478;2024-03-02T05:27:40;100665.50;;;5.89;54.31
49825;BME280;35714;55.708;37.478;2024-03-02T05:30:07;100663.31;;;5.93;54.54
49825;BME280;35714;55.708;37.478;2024-03-02T05:32:33;100667.34;;;5.97;54.31
49825;BME280;35714;55.708;37.478;2024-03-02T05:34:59;100672.88;;;5.95;54.04
49825;BME280;35714;55.708;37.478;2024-03-02T05:37:24;100674.75;;;5.95;54.23
49825;BME280;35714;55.708;37.478;2024-03-02T05:39:50;100669.69;;;6.00;54.31
49825;BME280;35714;55.708;37.478;2024-03-02T05:42:16;100671.03;;;6.04;53.92
49825;BME280;35714;55.708;37.478;2024-03-02T05:44:42;100679.44;;;6.09;53.94
49825;BME280;35714;55.708;37.478;2024-03-02T05:47:07;100680.78;;;6.13;53.80
49825;BME280;35714;55.708;37.478;2024-03-02T05:49:36;100670.34;;;6.10;54.06
49825;BME280;35714;55.708;37.478;2024-03-02T05:52:01;100682.78;;;6.11;53.72
49825;BME280;35714;55.708;37.478;2024-03-02T05:54:28;100686.16;;;6.13;53.65
49825;BME280;35714;55.708;37.478;2024-03-02T05:56:54;100677.91;;;6.15;53.62
49825;BME280;35714;55.708;37.478;2024-03-02T05:59:19;100687.47;;;6.18;53.53
49825;BME280;35714;55.708;37.478;2024-03-02T06:01:46;100678.03;;;6.22;53.50
49825;BME280;35714;55.708;37.478;2024-03-02T06:04:17;100681.38;;;6.24;53.25
49825;BME280;35714;55.708;37.478;2024-03-02T06:06:43;100681.03;;;6.27;53.46
49825;BME280;35714;55.708;37.478;2024-03-02T06:09:09;100697.34;;;6.34;53.08
49825;BME280;35714;55.708;37.478;2024-03-02T06:11:38;100678.31;;;6.35;53.05
49825;BME280;35714;55.708;37.478;2024-03-02T06:14:04;100681.66;;;6.37;52.86
49825;BME280;35714;55.708;37.478;2024-03-02T06:16:30;100664.53;;;6.30;52.81
49825;BME280;35714;55.708;37.478;2024-03-02T06:18:56;100677.75;;;6.40;53.16
49825;BME280;35714;55.708;37.478;2024-03-02T06:21:23;100682.78;;;6.43;52.94
49825;BME280;35714;55.708;37.478;2024-03-02T06:23:49;100685.28;;;6.53;52.80
49825;BME280;35714;55.708;37.478;2024-03-02T06:26:15;100682.91;;;6.58;52.90
49825;BME280;35714;55.708;37.478;2024-03-02T06:28:40;100680.69;;;6.61;52.66
49825;BME280;35714;55.708;37.478;2024-03-02T06:31:06;100689.28;;;6.65;52.41
49825;BME280;35714;55.708;37.478;2024-03-02T06:33:32;100685.53;;;6.66;52.33
49825;BME280;35714;55.708;37.478;2024-03-02T06:35:58;100671.75;;;6.61;52.28
49825;BME280;35714;55.708;37.478;2024-03-02T06:38:23;100685.19;;;6.69;52.38
49825;BME280;35714;55.708;37.478;2024-03-02T06:40:49;100681.13;;;6.73;52.12
49825;BME280;35714;55.708;37.478;2024-03-02T06:43:15;100687.09;;;6.83;52.22
49825;BME280;35714;55.708;37.478;2024-03-02T06:45:40;100683.97;;;6.95;52.01
49825;BME280;35714;55.708;37.478;2024-03-02T06:48:06;100681.91;;;7.05;51.94
49825;BME280;35714;55.708;37.478;2024-03-02T06:50:32;100688.06;;;7.14;51.59
49825;BME280;35714;55.708;37.478;2024-03-02T06:52:58;100687.81;;;7.23;51.29
49825;BME280;35714;55.708;37.478;2024-03-02T06:55:24;100687.09;;;7.30;51.32
49825;BME280;35714;55.708;37.478;2024-03-02T06:57:50;100692.59;;;7.36;51.13
49825;BME280;35714;55.708;37.478;2024-03-02T07:00:16;100685.63;;;7.42;51.05
49825;BME280;35714;55.708;37.478;2024-03-02T07:02:44;100695.31;;;7.51;51.09
49825;BME280;35714;55.708;37.478;2024-03-02T07:05:10;100697.94;;;7.59;50.90
49825;BME280;35714;55.708;37.478;2024-03-02T07:07:36;100692.44;;;7.68;50.54
49825;BME280;35714;55.708;37.478;2024-03-02T07:10:05;100695.44;;;7.73;50.46
49825;BME280;35714;55.708;37.478;2024-03-02T07:12:33;100704.09;;;7.83;50.46
49825;BME280;35714;55.708;37.478;2024-03-02T07:14:58;100688.44;;;7.93;49.96
49825;BME280;35714;55.708;37.478;2024-03-02T07:17:31;100697.94;;;8.04;49.94
49825;BME280;35714;55.708;37.478;2024-03-02T07:19:57;100698.03;;;8.11;49.36
49825;BME280;35714;55.708;37.478;2024-03-02T07:22:23;100701.88;;;8.17;49.30
49825;BME280;35714;55.708;37.478;2024-03-02T07:24:49;100695.16;;;8.27;49.25
49825;BME280;35714;55.708;37.478;2024-03-02T07:27:15;100703.13;;;8.36;49.04
49825;BME280;35714;55.708;37.478;2024-03-02T07:29:42;100694.94;;;8.44;48.96
49825;BME280;35714;55.708;37.478;2024-03-02T07:32:09;100698.41;;;8.53;48.65
49825;BME280;35714;55.708;37.478;2024-03-02T07:34:36;100701.81;;;8.61;48.56
49825;BME280;35714;55.708;37.478;2024-03-02T07:37:03;100693.97;;;8.66;48.26
49825;BME280;35714;55.708;37.478;2024-03-02T07:39:29;100688.44;;;8.75;48.03
49825;BME280;35714;55.708;37.478;2024-03-02T07:41:55;100685.88;;;8.88;47.83
49825;BME280;35714;55.708;37.478;2024-03-02T07:44:21;100682.00;;;8.97;47.78
49825;BME280;35714;55.708;37.478;2024-03-02T07:46:48;100685.63;;;9.05;47.21
49825;BME280;35714;55.708;37.478;2024-03-02T07:49:19;100681.03;;;9.05;47.10
49825;BME280;35714;55.708;37.478;2024-03-02T07:51:45;100674.03;;;9.11;46.73
49825;BME280;35714;55.708;37.478;2024-03-02T07:54:11;100678.72;;;9.24;46.79
49825;BME280;35714;55.708;37.478;2024-03-02T07:56:36;100671.38;;;9.46;46.83
49825;BME280;35714;55.708;37.478;2024-03-02T07:59:03;100677.00;;;9.72;46.10
49825;BME280;35714;55.708;37.478;2024-03-02T08:01:29;100669.72;;;10.15;45.93
49825;BME280;35714;55.708;37.478;2024-03-02T08:03:59;100672.72;;;10.88;44.73
49825;BME280;35714;55.708;37.478;2024-03-02T08:06:29;100675.00;;;11.65;42.96
49825;BME280;35714;55.708;37.478;2024-03-02T08:08:55;100664.47;;;12.15;42.08
49825;BME280;35714;55.708;37.478;2024-03-02T08:11:21;100673.13;;;12.44;41.28
49825;BME280;35714;55.708;37.478;2024-03-02T08:13:47;100665.03;;;12.69;40.50
49825;BME280;35714;55.708;37.478;2024-03-02T08:16:17;100668.69;;;12.88;39.83
49825;BME280;35714;55.708;37.478;2024-03-02T08:18:47;100659.47;;;12.89;39.25
49825;BME280;35714;55.708;37.478;2024-03-02T08:21:13;100667.31;;;13.04;39.08
49825;BME280;35714;55.708;37.478;2024-03-02T08:23:40;100667.31;;;13.29;38.73
49825;BME280;35714;55.708;37.478;2024-03-02T08:26:07;100677.75;;;13.83;38.33
49825;BME280;35714;55.708;37.478;2024-03-02T08:28:33;100663.25;;;14.56;36.98
49825;BME280;35714;55.708;37.478;2024-03-02T08:31:02;100665.03;;;15.35;35.68
49825;BME280;35714;55.708;37.478;2024-03-02T08:33:27;100671.72;;;15.86;34.74
49825;BME280;35714;55.708;37.478;2024-03-02T08:35:53;100681.31;;;16.13;34.33
49825;BME280;35714;55.708;37.478;2024-03-02T08:38:22;100679.28;;;16.32;33.58
49825;BME280;35714;55.708;37.478;2024-03-02T08:40:49;100680.22;;;16.26;33.60
49825;BME280;35714;55.708;37.478;2024-03-02T08:43:15;100682.59;;;16.34;33.23
49825;BME280;35714;55.708;37.478;2024-03-02T08:45:41;100673.72;;;16.55;32.93
49825;BME280;35714;55.708;37.478;2024-03-02T08:48:07;100675.56;;;16.67;32.16
49825;BME280;35714;55.708;37.478;2024-03-02T08:50:36;100672.31;;;16.41;31.52
49825;BME280;35714;55.708;37.478;2024-03-02T08:53:05;100671.34;;;16.07;31.89
49825;BME280;35714;55.708;37.478;2024-03-02T08:55:31;100678.63;;;15.77;32.73
49825;BME280;35714;55.708;37.478;2024-03-02T08:57:57;100672.19;;;16.07;32.92
49825;BME280;35714;55.708;37.478;2024-03-02T09:00:23;100675.56;;;16.67;32.56
49825;BME280;35714;55.708;37.478;2024-03-02T09:02:48;100675.06;;;16.99;31.79
49825;BME280;35714;55.708;37.478;2024-03-02T09:05:15;100672.09;;;17.00;31.63
49825;BME280;35714;55.708;37.478;2024-03-02T09:07:40;100676.22;;;16.86;31.51
49825;BME280;35714;55.708;37.478;2024-03-02T09:10:07;100677.03;;;16.57;31.39
49825;BME280;35714;55.708;37.478;2024-03-02T09:12:33;100668.31;;;16.32;31.69
49825;BME280;35714;55.708;37.478;2024-03-02T09:15:02;100670.72;;;16.16;31.15
49825;BME280;35714;55.708;37.478;2024-03-02T09:17:29;100668.84;;;16.05;31.93
49825;BME280;35714;55.708;37.478;2024-03-02T09:19:55;100664.13;;;15.88;31.90
49825;BME280;35714;55.708;37.478;2024-03-02T09:22:21;100657.56;;;15.78;31.97
49825;BME280;35714;55.708;37.478;2024-03-02T09:24:47;100656.63;;;15.96;32.04
49825;BME280;35714;55.708;37.478;2024-03-02T09:27:13;100656.50;;;16.43;31.40
49825;BME280;35714;55.708;37.478;2024-03-02T09:29:38;100668.75;;;16.69;30.51
49825;BME280;35714;55.708;37.478;2024-03-02T09:32:05;100654.88;;;16.59;30.20
49825;BME280;35714;55.708;37.478;2024-03-02T09:34:31;100652.63;;;16.27;30.80
49825;BME280;35714;55.708;37.478;2024-03-02T09:36:57;100638.53;;;15.83;31.40
49825;BME280;35714;55.708;37.478;2024-03-02T09:39:23;100650.31;;;15.60;31.57
49825;BME280;35714;55.708;37.478;2024-03-02T09:41:51;100653.97;;;15.42;31.94
49825;BME280;35714;55.708;37.478;2024-03-02T09:44:17;100647.44;;;15.19;32.39
49825;BME280;35714;55.708;37.478;2024-03-02T09:46:43;100652.97;;;14.89;32.47
49825;BME280;35714;55.708;37.478;2024-03-02T09:49:12;100647.56;;;14.52;33.05
49825;BME280;35714;55.708;37.478;2024-03-02T09:51:38;100647.31;;;14.23;33.41
49825;BME280;35714;55.708;37.478;2024-03-02T09:54:05;100654.97;;;14.14;33.46
49825;BME280;35714;55.708;37.478;2024-03-02T09:56:32;100655.06;;;13.89;33.88
49825;BME280;35714;55.708;37.478;2024-03-02T09:58:59;100654.53;;;13.80;34.21
49825;BME280;35714;55.708;37.478;2024-03-02T10:01:24;100652.41;;;13.82;34.14
49825;BME280;35714;55.708;37.478;2024-03-02T10:03:51;100647.78;;;13.83;34.49
49825;BME280;35714;55.708;37.478;2024-03-02T10:06:24;100653.09;;;13.78;34.51
49825;BME280;35714;55.708;37.478;2024-03-02T10:08:50;100652.16;;;13.65;34.35
49825;BME280;35714;55.708;37.478;2024-03-02T10:11:26;100653.50;;;13.56;34.48
49825;BME280;35714;55.708;37.478;2024-03-02T10:14:13;100647.22;;;13.56;34.84
49825;BME280;35714;55.708;37.478;2024-03-02T10:16:43;100654.97;;;13.33;34.76
49825;BME280;35714;55.708;37.478;2024-03-02T10:21:47;100655.19;;;12.75;35.68
49825;BME280;35714;55.708;37.478;2024-03-02T10:24:13;100654.72;;;12.39;36.47
49825;BME280;35714;55.708;37.478;2024-03-02T10:26:39;100654.06;;;11.99;37.05
49825;BME280;35714;55.708;37.478;2024-03-02T10:29:04;100654.13;;;11.52;37.80
49825;BME280;35714;55.708;37.478;2024-03-02T10:31:30;100655.00;;;11.26;38.51
49825;BME280;35714;55.708;37.478;2024-03-02T10:33:57;100654.16;;;11.05;39.09
49825;BME280;35714;55.708;37.478;2024-03-02T10:36:23;100661.88;;;11.08;39.06
49825;BME280;35714;55.708;37.478;2024-03-02T10:38:51;100661.22;;;11.06;39.10
49825;BME280;35714;55.708;37.478;2024-03-02T10:41:23;100666.28;;;11.23;39.24
49825;BME280;35714;55.708;37.478;2024-03-02T10:43:52;100661.66;;;11.30;38.74
49825;BME280;35714;55.708;37.478;2024-03-02T10:46:21;100663.75;;;11.28;38.68
49825;BME280;35714;55.708;37.478;2024-03-02T10:48:48;100664.38;;;11.16;39.02
49825;BME280;35714;55.708;37.478;2024-03-02T10:51:14;100662.50;;;11.24;39.15
49825;BME280;35714;55.708;37.478;2024-03-02T10:53:40;100670.44;;;11.32;38.88
49825;BME280;35714;55.708;37.478;2024-03-02T10:56:07;100667.50;;;11.40;38.96
49825;BME280;35714;55.708;37.478;2024-03-02T10:58:36;100671.25;;;11.46;38.93
49825;BME280;35714;55.708;37.478;2024-03-02T11:01:03;100669.16;;;11.54;38.66
49825;BME280;35714;55.708;37.478;2024-03-02T11:03:35;100672.50;;;11.63;38.44
49825;BME280;35714;55.708;37.478;2024-03-02T11:06:03;100672.50;;;11.70;38.08
49825;BME280;35714;55.708;37.478;2024-03-02T11:08:33;100661.22;;;11.73;38.26
49825;BME280;35714;55.708;37.478;2024-03-02T11:11:07;100663.25;;;11.84;38.02
49825;BME280;35714;55.708;37.478;2024-03-02T11:13:36;100667.19;;;12.08;37.89
49825;BME280;35714;55.708;37.478;2024-03-02T11:16:12;100663.09;;;12.38;37.48
49825;BME280;35714;55.708;37.478;2024-03-02T11:18:41;100661.28;;;12.63;36.89
49825;BME280;35714;55.708;37.478;2024-03-02T11:21:08;100649.63;;;12.88;36.42
49825;BME280;35714;55.708;37.478;2024-03-02T11:23:34;100665.94;;;13.20;36.26
49825;BME280;35714;55.708;37.478;2024-03-02T11:26:22;100660.03;;;13.55;35.73
49825;BME280;35714;55.708;37.478;2024-03-02T11:28:50;100667.72;;;13.83;35.17
49825;BME280;35714;55.708;37.478;2024-03-02T11:31:16;100656.50;;;13.92;34.80
49825;BME280;35714;55.708;37.478;2024-03-02T11:33:42;100662.41;;;13.88;34.50
49825;BME280;35714;55.708;37.478;2024-03-02T11:36:09;100664.00;;;13.78;34.61
49825;BME280;35714;55.708;37.478;2024-03-02T11:38:35;100656.78;;;13.65;34.56
49825;BME280;35714;55.708;37.478;2024-03-02T11:41:05;100655.03;;;13.52;34.61
49825;BME280;35714;55.708;37.478;2024-03-02T11:43:32;100649.47;;;13.40;34.58
49825;BME280;35714;55.708;37.478;2024-03-02T11:45:59;100659.56;;;13.33;34.87
49825;BME280;35714;55.708;37.478;2024-03-02T11:48:26;100652.84;;;13.35;34.82
49825;BME280;35714;55.708;37.478;2024-03-02T11:50:52;100647.75;;;13.46;34.80
49825;BME280;35714;55.708;37.478;2024-03-02T11:53:19;100646.72;;;14.02;34.39
49825;BME280;35714;55.708;37.478;2024-03-02T11:55:45;100642.88;;;15.01;33.29
49825;BME280;35714;55.708;37.478;2024-03-02T11:58:15;100641.63;;;15.98;32.26
49825;BME280;35714;55.708;37.478;2024-03-02T12:00:46;100638.09;;;16.84;30.45
49825;BME280;35714;55.708;37.478;2024-03-02T12:03:13;100644.78;;;17.56;29.71
49825;BME280;35714;55.708;37.478;2024-03-02T12:05:42;100639.44;;;18.28;28.68
49825;BME280;35714;55.708;37.478;2024-03-02T12:08:08;100640.28;;;18.83;28.03
49825;BME280;35714;55.708;37.478;2024-03-02T12:10:35;100642.09;;;19.32;27.53
49825;BME280;35714;55.708;37.478;2024-03-02T12:13:03;100641.66;;;19.82;26.67
49825;BME280;35714;55.708;37.478;2024-03-02T12:15:34;100645.19;;;20.36;25.53
49825;BME280;35714;55.708;37.478;2024-03-02T12:18:01;100635.94;;;20.68;25.32
49825;BME280;35714;55.708;37.478;2024-03-02T12:20:28;100629.91;;;20.91;24.71
49825;BME280;35714;55.708;37.478;2024-03-02T12:22:56;100639.28;;;21.21;24.62
49825;BME280;35714;55.708;37.478;2024-03-02T12:25:24;100635.97;;;21.50;24.20
49825;BME280;35714;55.708;37.478;2024-03-02T12:28:00;100640.09;;;21.58;23.47
49825;BME280;35714;55.708;37.478;2024-03-02T12:30:29;100645.34;;;21.23;23.58
49825;BME280;35714;55.708;37.478;2024-03-02T12:32:58;100643.66;;;20.71;24.09
49825;BME280;35714;55.708;37.478;2024-03-02T12:35:24;100649.56;;;20.22;24.37
49825;BME280;35714;55.708;37.478;2024-03-02T12:37:52;100643.41;;;20.04;24.73
49825;BME280;35714;55.708;37.478;2024-03-02T12:40:19;100649.00;;;20.25;24.63
49825;BME280;35714;55.708;37.478;2024-03-02T12:42:46;100644.19;;;20.63;23.87
49825;BME280;35714;55.708;37.478;2024-03-02T12:45:15;100636.53;;;20.96;23.40
49825;BME280;35714;55.708;37.478;2024-03-02T12:47:41;100646.16;;;21.19;23.25
49825;BME280;35714;55.708;37.478;2024-03-02T12:50:08;100645.34;;;21.23;23.20